createdAt,value
2023-04-07T00:01:25.016Z,3.97
2023-04-07T00:03:52.137Z,3.98
2023-04-07T00:06:18.925Z,4.04
2023-04-07T00:08:45.817Z,3.17
2023-04-07T00:11:12.512Z,3.06
2023-04-07T00:13:39.125Z,3.44
2023-04-07T00:16:06.082Z,4.14
2023-04-07T00:18:32.808Z,3.89
2023-04-07T00:20:59.535Z,4.24
2023-04-07T00:23:27.236Z,4.14
2023-04-07T00:25:54.243Z,3.73
2023-04-07T00:28:20.836Z,2.10
2023-04-07T00:30:47.629Z,3.69
2023-04-07T00:33:14.370Z,3.85
2023-04-07T00:35:41.091Z,4.09
2023-04-07T00:38:07.807Z,3.32
2023-04-07T00:40:34.564Z,3.46
2023-04-07T00:43:01.175Z,4.16
2023-04-07T00:45:27.961Z,4.18
2023-04-07T00:47:56.596Z,4.21
2023-04-07T00:50:23.461Z,4.21
2023-04-07T00:52:50.944Z,2.91
2023-04-07T00:55:17.591Z,3.85
2023-04-07T00:57:46.585Z,4.16
2023-04-07T01:00:13.895Z,3.97
2023-04-07T01:02:54.673Z,3.96
2023-04-07T01:05:42.421Z,3.08
2023-04-07T01:08:19.193Z,3.81
2023-04-07T01:10:46.742Z,4.11
2023-04-07T01:13:36.520Z,4.17
2023-04-07T01:16:32.303Z,3.84
2023-04-07T01:19:14.115Z,4.05
2023-04-07T01:21:46.788Z,3.96
2023-04-07T01:24:25.759Z,4.01
2023-04-07T01:27:00.646Z,2.92
2023-04-07T01:29:27.416Z,3.99
2023-04-07T01:31:57.702Z,3.11
2023-04-07T01:34:26.892Z,3.69
2023-04-07T01:36:55.070Z,3.75
2023-04-07T01:39:22.823Z,3.87
2023-04-07T01:41:53.134Z,3.83
2023-04-07T01:44:21.084Z,3.62
2023-04-07T01:46:51.075Z,3.72
2023-04-07T01:49:19.305Z,3.23
2023-04-07T01:51:50.517Z,4.05
2023-04-07T01:54:18.402Z,3.96
2023-04-07T01:56:45.552Z,3.66
2023-04-07T01:59:13.138Z,3.54
2023-04-07T02:01:40.445Z,3.01
2023-04-07T02:04:27.699Z,3.09
2023-04-07T02:07:06.206Z,3.18
2023-04-07T02:09:42.556Z,3.28
2023-04-07T02:12:13.034Z,3.39
2023-04-07T02:14:44.909Z,3.49
2023-04-07T02:17:16.662Z,3.07
2023-04-07T02:19:46.417Z,3.66
2023-04-07T02:22:13.747Z,1.18
2023-04-07T02:24:43.547Z,3.85
2023-04-07T02:27:10.358Z,3.84
2023-04-07T02:29:37.012Z,3.90
2023-04-07T02:32:03.818Z,3.92
2023-04-07T02:34:30.618Z,3.97
2023-04-07T02:36:57.283Z,3.89
2023-04-07T02:39:23.939Z,3.30
2023-04-07T02:41:50.717Z,3.81
2023-04-07T02:44:17.314Z,3.49
2023-04-07T02:46:43.933Z,3.55
2023-04-07T02:49:11.570Z,3.37
2023-04-07T02:51:38.545Z,3.31
2023-04-07T02:54:05.180Z,3.44
2023-04-07T02:56:32.743Z,2.51
2023-04-07T02:58:59.561Z,3.44
2023-04-07T03:01:27.925Z,3.12
2023-04-07T03:03:55.191Z,3.65
2023-04-07T03:06:24.419Z,3.68
2023-04-07T03:09:11.225Z,3.80
2023-04-07T03:11:39.349Z,3.79
2023-04-07T03:14:06.034Z,3.62
2023-04-07T03:16:35.318Z,3.89
2023-04-07T03:19:07.505Z,4.00
2023-04-07T03:21:38.763Z,3.38
2023-04-07T03:24:06.875Z,4.05
2023-04-07T03:26:33.511Z,3.81
2023-04-07T03:29:01.412Z,3.35
2023-04-07T03:31:30.462Z,4.02
2023-04-07T03:33:57.178Z,3.54
2023-04-07T03:36:24.639Z,4.05
2023-04-07T03:38:51.431Z,4.07
2023-04-07T03:41:18.881Z,3.47
2023-04-07T03:43:47.561Z,3.93
2023-04-07T03:46:15.101Z,3.54
2023-04-07T03:48:43.157Z,3.95
2023-04-07T03:51:11.063Z,3.86
2023-04-07T03:53:38.467Z,3.22
2023-04-07T03:56:20.113Z,3.80
2023-04-07T03:58:49.699Z,4.02
2023-04-07T04:01:24.292Z,3.08
2023-04-07T04:03:51.783Z,4.04
2023-04-07T04:06:27.120Z,1.27
2023-04-07T04:08:59.933Z,3.68
2023-04-07T04:11:27.580Z,4.04
2023-04-07T04:13:58.557Z,4.13
2023-04-07T04:16:26.256Z,4.09
2023-04-07T04:18:56.215Z,4.05
2023-04-07T04:21:24.239Z,4.01
2023-04-07T04:23:51.309Z,4.02
2023-04-07T04:26:18.076Z,4.04
2023-04-07T04:28:45.590Z,3.73
2023-04-07T04:31:13.513Z,3.96
2023-04-07T04:33:43.617Z,3.65
2023-04-07T04:36:10.617Z,3.95
2023-04-07T04:38:37.320Z,3.50
2023-04-07T04:41:09.919Z,3.73
2023-04-07T04:43:36.596Z,3.84
2023-04-07T04:46:04.903Z,3.88
2023-04-07T04:48:36.561Z,3.94
2023-04-07T04:51:05.680Z,4.02
2023-04-07T04:53:32.610Z,3.95
2023-04-07T04:56:01.615Z,3.59
2023-04-07T04:58:37.775Z,3.79
2023-04-07T05:01:04.622Z,3.85
2023-04-07T05:03:40.657Z,3.82
2023-04-07T05:06:15.329Z,3.94
2023-04-07T05:08:43.747Z,3.92
2023-04-07T05:11:11.790Z,3.97
2023-04-07T05:13:38.759Z,3.99
2023-04-07T05:16:06.480Z,4.07
2023-04-07T05:18:34.456Z,4.10
2023-04-07T05:21:02.101Z,3.73
2023-04-07T05:23:29.652Z,1.74
2023-04-07T05:25:57.013Z,2.60
2023-04-07T05:28:24.749Z,2.83
2023-04-07T05:30:53.264Z,3.18
2023-04-07T05:33:23.875Z,3.70
2023-04-07T05:35:52.916Z,3.72
2023-04-07T05:38:19.575Z,3.84
2023-04-07T05:40:48.187Z,3.90
2023-04-07T05:43:21.892Z,0.72
2023-04-07T05:45:49.330Z,2.46
2023-04-07T05:48:16.307Z,1.21
2023-04-07T05:50:45.995Z,3.60
2023-04-07T05:53:16.308Z,3.74
2023-04-07T05:55:43.861Z,2.79
2023-04-07T05:58:14.852Z,3.19
2023-04-07T06:00:47.345Z,3.43
2023-04-07T06:03:17.135Z,2.81
2023-04-07T06:05:55.115Z,2.82
2023-04-07T06:08:22.604Z,3.19
2023-04-07T06:10:49.409Z,3.24
2023-04-07T06:13:16.270Z,3.41
2023-04-07T06:15:42.924Z,3.23
2023-04-07T06:18:09.967Z,3.50
2023-04-07T06:20:36.750Z,3.12
2023-04-07T06:23:03.426Z,3.81
2023-04-07T06:25:30.142Z,3.87
2023-04-07T06:27:56.872Z,3.84
2023-04-07T06:30:23.686Z,3.88
2023-04-07T06:32:51.538Z,3.05
2023-04-07T06:35:18.247Z,3.93
2023-04-07T06:37:44.957Z,3.69
2023-04-07T06:40:11.636Z,3.79
2023-04-07T06:42:38.389Z,4.02
2023-04-07T06:45:25.339Z,3.89
2023-04-07T06:47:52.034Z,3.12
2023-04-07T06:50:20.924Z,4.07
2023-04-07T06:52:47.963Z,3.69
2023-04-07T06:55:14.647Z,4.18
2023-04-07T06:57:41.318Z,4.10
2023-04-07T07:00:09.041Z,4.17
2023-04-07T07:02:35.921Z,4.09
2023-04-07T07:05:04.735Z,3.92
2023-04-07T07:07:31.464Z,3.81
2023-04-07T07:09:58.174Z,3.47
2023-04-07T07:12:24.810Z,3.74
2023-04-07T07:14:51.426Z,3.68
2023-04-07T07:17:18.046Z,4.09
2023-04-07T07:19:44.583Z,4.10
2023-04-07T07:22:11.566Z,4.11
2023-04-07T07:24:38.205Z,3.04
2023-04-07T07:27:04.997Z,4.12
2023-04-07T07:29:31.890Z,4.04
2023-04-07T07:31:58.567Z,4.00
2023-04-07T07:34:25.358Z,3.63
2023-04-07T07:36:51.996Z,3.63
2023-04-07T07:39:18.704Z,3.61
2023-04-07T07:41:45.433Z,3.63
2023-04-07T07:44:12.195Z,3.98
2023-04-07T07:46:38.825Z,3.86
2023-04-07T07:49:05.881Z,3.39
2023-04-07T07:51:32.511Z,4.07
2023-04-07T07:53:59.228Z,2.59
2023-04-07T07:56:25.827Z,2.90
2023-04-07T07:58:52.419Z,3.30
2023-04-07T08:01:19.073Z,1.72
2023-04-07T08:03:46.042Z,3.65
2023-04-07T08:06:13.077Z,3.88
2023-04-07T08:08:39.736Z,4.05
2023-04-07T08:11:06.532Z,4.08
2023-04-07T08:13:33.186Z,4.14
2023-04-07T08:15:59.885Z,3.66
2023-04-07T08:18:26.578Z,4.14
2023-04-07T08:20:53.680Z,3.72
2023-04-07T08:23:20.331Z,2.75
2023-04-07T08:25:46.986Z,2.98
2023-04-07T08:28:13.660Z,3.49
2023-04-07T08:30:40.405Z,4.13
2023-04-07T08:33:07.083Z,4.21
2023-04-07T08:35:33.973Z,4.21
2023-04-07T08:38:00.710Z,4.17
2023-04-07T08:40:27.318Z,4.26
2023-04-07T08:42:54.077Z,4.12
2023-04-07T08:45:21.397Z,3.66
2023-04-07T08:47:54.041Z,4.22
2023-04-07T08:50:21.842Z,4.06
2023-04-07T08:52:55.067Z,3.50
2023-04-07T08:55:21.835Z,4.09
2023-04-07T08:57:48.552Z,4.19
2023-04-07T09:00:16.098Z,4.30
2023-04-07T09:02:48.885Z,4.04
2023-04-07T09:05:15.684Z,4.19
2023-04-07T09:07:45.802Z,4.32
2023-04-07T09:10:12.514Z,3.41
2023-04-07T09:12:39.623Z,4.33
2023-04-07T09:15:07.784Z,3.33
2023-04-07T09:17:34.613Z,3.80
2023-04-07T09:20:02.091Z,4.12
2023-04-07T09:22:36.856Z,2.78
2023-04-07T09:25:13.985Z,2.79
2023-04-07T09:27:40.966Z,4.20
2023-04-07T09:30:15.716Z,4.37
2023-04-07T09:32:42.621Z,4.11
2023-04-07T09:35:09.653Z,3.76
2023-04-07T09:37:36.475Z,3.84
2023-04-07T09:40:03.931Z,4.33
2023-04-07T09:42:34.599Z,4.30
2023-04-07T09:45:02.086Z,4.37
2023-04-07T09:47:31.281Z,4.32
2023-04-07T09:49:59.404Z,3.97
2023-04-07T09:52:49.558Z,4.49
2023-04-07T09:55:17.406Z,4.49
2023-04-07T09:57:45.003Z,4.36
2023-04-07T10:00:12.574Z,4.44
2023-04-07T10:02:43.601Z,4.54
2023-04-07T10:05:11.137Z,3.88
2023-04-07T10:07:37.972Z,4.00
2023-04-07T10:10:05.234Z,4.22
2023-04-07T10:12:34.798Z,3.24
2023-04-07T10:15:02.378Z,4.14
2023-04-07T10:17:29.784Z,4.71
2023-04-07T10:19:58.944Z,4.78
2023-04-07T10:22:30.495Z,4.59
2023-04-07T10:25:13.266Z,3.72
2023-04-07T10:27:59.239Z,4.72
2023-04-07T10:30:29.042Z,4.87
2023-04-07T10:32:56.283Z,2.87
2023-04-07T10:35:23.768Z,4.90
2023-04-07T10:38:10.550Z,5.01
2023-04-07T10:40:38.202Z,4.94
2023-04-07T10:43:11.311Z,4.49
2023-04-07T10:45:48.593Z,5.01
2023-04-07T10:48:17.235Z,4.39
2023-04-07T10:50:46.083Z,4.90
2023-04-07T10:53:16.304Z,5.06
2023-04-07T10:55:44.836Z,4.89
2023-04-07T10:58:25.050Z,5.00
2023-04-07T11:01:00.988Z,5.08
2023-04-07T11:03:29.828Z,4.14
2023-04-07T11:06:03.866Z,4.65
2023-04-07T11:08:44.738Z,5.22
2023-04-07T11:11:14.133Z,5.21
2023-04-07T11:13:48.772Z,4.31
2023-04-07T11:16:18.233Z,5.19
2023-04-07T11:18:47.642Z,3.69
2023-04-07T11:21:18.635Z,5.24
2023-04-07T11:23:46.872Z,5.27
2023-04-07T11:26:15.326Z,4.48
2023-04-07T11:28:46.785Z,5.21
2023-04-07T11:31:22.968Z,5.22
2023-04-07T11:33:53.877Z,4.82
2023-04-07T11:36:48.206Z,5.22
2023-04-07T11:39:20.488Z,4.68
2023-04-07T11:41:49.617Z,4.73
2023-04-07T11:44:16.554Z,5.19
2023-04-07T11:46:57.815Z,5.28
2023-04-07T11:49:27.958Z,2.73
2023-04-07T11:51:59.790Z,5.42
2023-04-07T11:54:26.615Z,4.02
2023-04-07T11:56:55.633Z,4.76
2023-04-07T11:59:24.303Z,5.06
2023-04-07T12:01:55.309Z,5.12
2023-04-07T12:04:24.149Z,5.38
2023-04-07T12:06:51.565Z,5.31
2023-04-07T12:09:30.466Z,5.29
2023-04-07T12:11:58.357Z,5.51
2023-04-07T12:14:26.437Z,3.30
2023-04-07T12:16:56.315Z,5.57
2023-04-07T12:19:24.278Z,5.47
2023-04-07T12:21:51.584Z,5.60
2023-04-07T12:24:18.270Z,5.70
2023-04-07T12:26:45.278Z,5.74
2023-04-07T12:29:11.964Z,5.75
2023-04-07T12:31:38.695Z,5.53
2023-04-07T12:34:05.673Z,5.78
2023-04-07T12:36:33.281Z,5.81
2023-04-07T12:39:00.037Z,4.96
2023-04-07T12:41:26.917Z,5.92
2023-04-07T12:43:53.815Z,5.94
2023-04-07T12:46:21.297Z,5.05
2023-04-07T12:48:48.162Z,4.29
2023-04-07T12:51:15.024Z,3.67
2023-04-07T12:53:41.809Z,5.22
2023-04-07T12:56:08.653Z,5.99
2023-04-07T12:58:35.356Z,5.27
2023-04-07T13:01:02.029Z,5.80
2023-04-07T13:03:28.998Z,5.58
2023-04-07T13:05:55.994Z,6.10
2023-04-07T13:08:22.742Z,6.04
2023-04-07T13:10:50.771Z,6.05
2023-04-07T13:13:17.368Z,3.83
2023-04-07T13:15:44.053Z,5.78
2023-04-07T13:18:10.925Z,5.60
2023-04-07T13:20:37.813Z,6.04
2023-04-07T13:23:08.359Z,5.87
2023-04-07T13:25:37.453Z,5.29
2023-04-07T13:28:04.432Z,6.04
2023-04-07T13:30:31.324Z,5.52
2023-04-07T13:32:57.998Z,6.21
2023-04-07T13:35:24.760Z,6.06
2023-04-07T13:37:51.385Z,5.13
2023-04-07T13:40:18.201Z,5.37
2023-04-07T13:42:46.120Z,5.28
2023-04-07T13:45:12.719Z,6.15
2023-04-07T13:47:39.346Z,5.11
2023-04-07T13:50:06.496Z,6.20
2023-04-07T13:52:35.241Z,6.15
2023-04-07T13:55:04.245Z,6.25
2023-04-07T13:57:31.231Z,5.28
2023-04-07T13:59:58.156Z,5.52
2023-04-07T14:02:27.978Z,5.80
2023-04-07T14:04:55.013Z,6.29
2023-04-07T14:07:22.899Z,6.29
2023-04-07T14:09:49.713Z,5.77
2023-04-07T14:12:16.459Z,6.28
2023-04-07T14:14:43.133Z,5.56
2023-04-07T14:17:09.838Z,6.37
2023-04-07T14:19:36.501Z,5.26
2023-04-07T14:22:03.209Z,5.02
2023-04-07T14:24:29.821Z,6.40
2023-04-07T14:26:56.497Z,6.40
2023-04-07T14:29:23.673Z,6.17
2023-04-07T14:31:51.475Z,5.76
2023-04-07T14:34:18.310Z,5.74
2023-04-07T14:37:00.914Z,6.21
2023-04-07T14:39:27.574Z,6.34
2023-04-07T14:41:54.214Z,6.05
2023-04-07T14:44:21.327Z,5.37
2023-04-07T14:46:48.543Z,6.39
2023-04-07T14:49:15.568Z,6.42
2023-04-07T14:51:42.562Z,4.03
2023-04-07T14:54:09.217Z,5.52
2023-04-07T14:56:35.829Z,6.43
2023-04-07T14:59:03.191Z,6.42
2023-04-07T15:01:29.876Z,5.37
2023-04-07T15:03:58.565Z,6.50
2023-04-07T15:06:26.353Z,6.50
2023-04-07T15:08:53.481Z,6.50
2023-04-07T15:11:20.152Z,6.53
2023-04-07T15:13:47.156Z,6.10
2023-04-07T15:16:14.996Z,6.60
2023-04-07T15:18:44.780Z,5.98
2023-04-07T15:21:12.507Z,6.01
2023-04-07T15:23:41.685Z,6.63
2023-04-07T15:26:09.211Z,4.81
2023-04-07T15:28:35.913Z,6.03
2023-04-07T15:31:02.538Z,6.59
2023-04-07T15:33:29.219Z,6.43
2023-04-07T15:35:56.347Z,6.18
2023-04-07T15:38:23.048Z,6.63
2023-04-07T15:40:49.641Z,6.12
2023-04-07T15:43:16.347Z,6.63
2023-04-07T15:45:44.484Z,6.52
2023-04-07T15:48:12.010Z,6.33
2023-04-07T15:50:38.879Z,6.69
2023-04-07T15:53:06.949Z,6.67
2023-04-07T15:55:34.922Z,6.67
2023-04-07T15:58:02.493Z,6.34
2023-04-07T16:00:32.433Z,6.53
2023-04-07T16:02:59.440Z,5.91
2023-04-07T16:05:26.281Z,6.43
2023-04-07T16:07:53.006Z,5.00
2023-04-07T16:10:20.179Z,5.55
2023-04-07T16:12:47.519Z,6.68
2023-04-07T16:15:20.494Z,5.96
2023-04-07T16:17:49.870Z,6.14
2023-04-07T16:20:16.762Z,6.62
2023-04-07T16:22:46.392Z,6.66
2023-04-07T16:25:16.466Z,6.74
2023-04-07T16:27:47.226Z,6.77
2023-04-07T16:30:15.149Z,6.76
2023-04-07T16:32:43.731Z,6.79
2023-04-07T16:35:11.703Z,6.70
2023-04-07T16:37:39.381Z,6.79
2023-04-07T16:40:07.129Z,6.48
2023-04-07T16:42:34.207Z,6.84
2023-04-07T16:45:01.528Z,6.31
2023-04-07T16:47:29.677Z,6.81
2023-04-07T16:49:57.271Z,5.44
2023-04-07T16:52:24.728Z,6.29
2023-04-07T16:54:51.699Z,6.77
2023-04-07T16:57:18.465Z,4.61
2023-04-07T16:59:46.359Z,6.32
2023-04-07T17:02:16.168Z,6.44
2023-04-07T17:04:44.262Z,6.64
2023-04-07T17:07:11.782Z,5.75
2023-04-07T17:09:39.005Z,6.72
2023-04-07T17:12:06.275Z,6.66
2023-04-07T17:14:33.717Z,6.18
2023-04-07T17:17:01.637Z,6.63
2023-04-07T17:19:28.598Z,6.16
2023-04-07T17:21:55.350Z,6.29
2023-04-07T17:24:22.492Z,6.59
2023-04-07T17:26:49.476Z,6.30
2023-04-07T17:29:17.213Z,6.50
2023-04-07T17:31:44.010Z,6.34
2023-04-07T17:34:11.324Z,5.84
2023-04-07T17:36:38.106Z,6.14
2023-04-07T17:39:05.303Z,6.08
2023-04-07T17:41:34.500Z,5.79
2023-04-07T17:44:01.845Z,6.16
2023-04-07T17:46:29.123Z,6.27
2023-04-07T17:48:59.018Z,5.02
2023-04-07T17:51:26.642Z,6.23
2023-04-07T17:53:54.262Z,6.23
2023-04-07T17:56:21.662Z,5.36
2023-04-07T17:58:48.619Z,4.90
2023-04-07T18:01:16.837Z,5.88
2023-04-07T18:03:44.079Z,5.80
2023-04-07T18:06:15.578Z,5.64
2023-04-07T18:08:43.253Z,5.84
2023-04-07T18:11:09.849Z,5.46
2023-04-07T18:13:36.456Z,5.42
2023-04-07T18:16:03.447Z,4.11
2023-04-07T18:18:30.891Z,4.68
2023-04-07T18:20:57.849Z,4.71
2023-04-07T18:23:24.481Z,4.53
2023-04-07T18:25:51.636Z,4.52
2023-04-07T18:28:18.648Z,4.90
2023-04-07T18:30:45.519Z,4.99
2023-04-07T18:33:14.192Z,5.00
2023-04-07T18:35:41.243Z,4.92
2023-04-07T18:38:07.985Z,4.94
2023-04-07T18:40:35.445Z,4.92
2023-04-07T18:43:02.598Z,4.83
2023-04-07T18:45:29.248Z,4.83
2023-04-07T18:47:56.252Z,4.42
2023-04-07T18:50:23.291Z,4.70
2023-04-07T18:52:50.013Z,4.76
2023-04-07T18:55:16.709Z,4.52
2023-04-07T18:57:43.382Z,4.39
2023-04-07T19:00:10.520Z,4.62
2023-04-07T19:02:44.136Z,3.75
2023-04-07T19:05:11.796Z,4.62
2023-04-07T19:07:38.639Z,4.49
2023-04-07T19:10:05.934Z,4.22
2023-04-07T19:12:32.779Z,4.35
2023-04-07T19:14:59.477Z,4.00
2023-04-07T19:17:26.726Z,3.63
2023-04-07T19:19:53.437Z,3.47
2023-04-07T19:22:20.208Z,3.75
2023-04-07T19:24:47.000Z,4.12
2023-04-07T19:27:14.660Z,2.62
2023-04-07T19:29:41.634Z,3.77
2023-04-07T19:32:08.765Z,3.54
2023-04-07T19:34:35.409Z,3.31
2023-04-07T19:37:02.069Z,2.94
2023-04-07T19:39:29.017Z,2.83
2023-04-07T19:41:56.095Z,2.71
2023-04-07T19:44:22.781Z,3.22
2023-04-07T19:46:49.396Z,2.85
2023-04-07T19:49:16.183Z,2.35
2023-04-07T19:51:43.145Z,2.22
2023-04-07T19:54:09.834Z,1.87
2023-04-07T19:56:37.627Z,3.05
2023-04-07T19:59:04.491Z,1.74
2023-04-07T20:01:31.397Z,2.87
2023-04-07T20:03:58.309Z,2.08
2023-04-07T20:06:27.190Z,2.47
2023-04-07T20:08:55.541Z,1.66
2023-04-07T20:11:22.459Z,1.50
2023-04-07T20:13:49.542Z,2.42
2023-04-07T20:16:16.272Z,1.52
2023-04-07T20:18:42.988Z,0.29
2023-04-07T20:21:10.010Z,1.20
2023-04-07T20:23:36.821Z,2.27
2023-04-07T20:26:04.164Z,2.10
2023-04-07T20:28:31.223Z,2.27
2023-04-07T20:30:57.998Z,1.78
2023-04-07T20:33:24.708Z,2.47
2023-04-07T20:35:51.413Z,2.24
2023-04-07T20:38:18.822Z,2.38
2023-04-07T20:40:45.512Z,2.33
2023-04-07T20:43:12.235Z,1.64
2023-04-07T20:45:39.185Z,1.64
2023-04-07T20:48:06.012Z,2.23
2023-04-07T20:50:33.260Z,2.19
2023-04-07T20:52:59.926Z,2.30
2023-04-07T20:55:27.306Z,2.27
2023-04-07T20:57:54.723Z,0.95
2023-04-07T21:00:21.559Z,2.28
2023-04-07T21:02:49.000Z,2.20
2023-04-07T21:05:15.858Z,1.20
2023-04-07T21:07:42.658Z,1.62
2023-04-07T21:10:09.812Z,1.56
2023-04-07T21:12:36.596Z,2.38
2023-04-07T21:15:03.457Z,2.14
2023-04-07T21:17:30.245Z,2.13
2023-04-07T21:19:56.995Z,1.00
2023-04-07T21:22:23.848Z,0.89
2023-04-07T21:24:53.433Z,1.07
2023-04-07T21:27:20.954Z,1.49
2023-04-07T21:29:47.680Z,0.73
2023-04-07T21:32:14.337Z,0.66
2023-04-07T21:34:41.197Z,0.85
2023-04-07T21:37:07.915Z,1.15
2023-04-07T21:39:35.100Z,0.88
2023-04-07T21:42:02.442Z,0.28
2023-04-07T21:44:29.164Z,1.43
2023-04-07T21:46:56.070Z,1.59
2023-04-07T21:49:23.022Z,1.26
2023-04-07T21:51:49.686Z,1.95
2023-04-07T21:54:17.212Z,1.81
2023-04-07T21:56:46.681Z,1.77
2023-04-07T21:59:13.274Z,0.61
2023-04-07T22:01:40.013Z,2.03
2023-04-07T22:04:06.826Z,1.94
2023-04-07T22:06:33.451Z,1.84
2023-04-07T22:09:01.613Z,1.41
2023-04-07T22:11:29.582Z,1.90
2023-04-07T22:13:56.293Z,1.88
2023-04-07T22:16:23.096Z,1.69
2023-04-07T22:18:50.260Z,1.14
2023-04-07T22:21:17.522Z,0.72
2023-04-07T22:23:44.769Z,2.33
2023-04-07T22:26:11.568Z,-0.22
2023-04-07T22:28:38.222Z,2.57
2023-04-07T22:31:05.071Z,2.16
2023-04-07T22:33:31.827Z,2.02
2023-04-07T22:35:58.528Z,0.32
2023-04-07T22:38:25.370Z,2.68
2023-04-07T22:40:52.106Z,1.62
2023-04-07T22:43:18.871Z,2.55
2023-04-07T22:45:45.932Z,2.27
2023-04-07T22:48:12.912Z,2.14
2023-04-07T22:50:39.678Z,1.73
2023-04-07T22:53:07.372Z,-1.13
2023-04-07T22:55:34.780Z,-0.43
2023-04-07T22:58:01.784Z,2.31
2023-04-07T23:00:28.670Z,1.54
2023-04-07T23:02:55.514Z,1.48
2023-04-07T23:05:22.425Z,1.97
2023-04-07T23:07:49.122Z,2.62
2023-04-07T23:10:15.719Z,2.36
2023-04-07T23:12:42.535Z,2.35
2023-04-07T23:15:09.709Z,2.26
2023-04-07T23:17:36.844Z,0.44
2023-04-07T23:20:03.801Z,2.46
2023-04-07T23:22:30.655Z,2.46
2023-04-07T23:24:57.292Z,0.68
2023-04-07T23:27:23.939Z,2.51
2023-04-07T23:29:51.415Z,1.29
2023-04-07T23:32:18.425Z,2.39
2023-04-07T23:34:45.684Z,2.29
2023-04-07T23:37:12.300Z,-0.39
2023-04-07T23:39:39.236Z,-0.54
2023-04-07T23:42:05.878Z,2.20
2023-04-07T23:44:32.552Z,1.89
2023-04-07T23:46:59.289Z,0.71
2023-04-07T23:49:26.202Z,1.29
2023-04-07T23:51:52.776Z,1.86
2023-04-07T23:54:19.409Z,2.06
2023-04-07T23:56:46.022Z,2.01
2023-04-07T23:59:13.270Z,0.65
